JBU1704 SKRG-TJSJ
Flight info
| Callsign | JBU1704 |
|---|---|
| Flight time | 2h 19m |
| Altitude | 36000 |
| Route | BIVIG1B BIVIG DCT SERVO UW3 MGN/N0457F370 DCT UBLAX UG444 SELAN UM525 VESKA UL221 DUMBI DCT ALTEL UL221 SATOE L221 JOSHE JOSHE3 |
| Aircraft | A320/M-SDE3FGHIRWY/LB1 |
Departure
| Time | 2026-04-22 21:17 |
|---|---|
| Airport | Jose Maria Córdova International Airport (SKRG) |
Arrival
| Time | 2026-04-22 23:37 |
|---|---|
| Airport | Luis Munoz Marin International Airport (TJSJ) |
| Time | Latitude | Longitude | Altitude | Speed | Heading |
|---|---|---|---|---|---|
| 2026-04-22 20:31 | 6.17325 | -75.42903 | 7020 ft | 0 kts | 190° |
| 2026-04-22 21:04 | 6.17339 | -75.42901 | 7022 ft | 4 kts | 186° |
| 2026-04-22 21:04 | 6.17366 | -75.42900 | 7019 ft | 4 kts | 176° |
| 2026-04-22 21:04 | 6.17393 | -75.42904 | 7019 ft | 4 kts | 161° |
| 2026-04-22 21:04 | 6.17416 | -75.42915 | 7021 ft | 4 kts | 132° |
| 2026-04-22 21:05 | 6.17425 | -75.42928 | 7021 ft | 4 kts | 102° |
| 2026-04-22 21:05 | 6.17419 | -75.42901 | 7019 ft | 4 kts | 102° |
| 2026-04-22 21:05 | 6.17415 | -75.42883 | 7019 ft | 0 kts | 101° |
| 2026-04-22 21:10 | 6.17415 | -75.42882 | 7018 ft | 1 kts | 101° |
| 2026-04-22 21:10 | 6.17413 | -75.42869 | 7021 ft | 4 kts | 101° |
| 2026-04-22 21:10 | 6.17406 | -75.42834 | 7018 ft | 6 kts | 101° |
| 2026-04-22 21:10 | 6.17396 | -75.42795 | 7018 ft | 6 kts | 108° |
| 2026-04-22 21:11 | 6.17379 | -75.42743 | 7021 ft | 9 kts | 116° |
| 2026-04-22 21:11 | 6.17349 | -75.42685 | 7022 ft | 9 kts | 114° |
| 2026-04-22 21:11 | 6.17316 | -75.42630 | 7019 ft | 9 kts | 135° |
| 2026-04-22 21:11 | 6.17252 | -75.42619 | 7020 ft | 11 kts | 177° |
| 2026-04-22 21:12 | 6.17165 | -75.42619 | 7020 ft | 13 kts | 180° |
| 2026-04-22 21:12 | 6.17068 | -75.42609 | 7015 ft | 16 kts | 156° |
| 2026-04-22 21:12 | 6.16965 | -75.42549 | 7014 ft | 18 kts | 148° |
| 2026-04-22 21:12 | 6.16848 | -75.42482 | 6998 ft | 16 kts | 167° |
| 2026-04-22 21:13 | 6.16721 | -75.42483 | 6994 ft | 20 kts | 179° |
| 2026-04-22 21:13 | 6.16568 | -75.42481 | 6990 ft | 24 kts | 180° |
| 2026-04-22 21:13 | 6.16389 | -75.42480 | 6980 ft | 28 kts | 179° |
| 2026-04-22 21:13 | 6.16190 | -75.42478 | 6978 ft | 29 kts | 180° |
| 2026-04-22 21:14 | 6.15985 | -75.42477 | 6976 ft | 29 kts | 179° |
| 2026-04-22 21:14 | 6.15784 | -75.42477 | 6975 ft | 29 kts | 180° |
| 2026-04-22 21:14 | 6.15585 | -75.42474 | 6976 ft | 28 kts | 179° |
| 2026-04-22 21:14 | 6.15392 | -75.42474 | 6976 ft | 27 kts | 180° |
| 2026-04-22 21:15 | 6.15205 | -75.42473 | 6977 ft | 27 kts | 179° |
| 2026-04-22 21:15 | 6.15020 | -75.42472 | 6978 ft | 26 kts | 180° |
| 2026-04-22 21:15 | 6.14901 | -75.42465 | 6977 ft | 15 kts | 152° |
| 2026-04-22 21:15 | 6.14888 | -75.42365 | 6975 ft | 15 kts | 88° |
| 2026-04-22 21:16 | 6.14913 | -75.42305 | 6976 ft | 8 kts | 18° |
| 2026-04-22 21:16 | 6.14949 | -75.42298 | 6977 ft | 0 kts | 0° |
| 2026-04-22 21:16 | 6.15069 | -75.42299 | 6979 ft | 52 kts | 359° |
| 2026-04-22 21:17 | 6.15674 | -75.42305 | 6981 ft | 119 kts | 359° |
| 2026-04-22 21:17 | 6.16685 | -75.42312 | 6995 ft | 170 kts | 358° |
| 2026-04-22 21:17 | 6.17898 | -75.42319 | 7646 ft | 174 kts | 359° |
| 2026-04-22 21:17 | 6.19111 | -75.42318 | 8416 ft | 171 kts | 359° |
| 2026-04-22 21:18 | 6.20301 | -75.42317 | 8926 ft | 171 kts | 359° |
| 2026-04-22 21:18 | 6.21438 | -75.42050 | 9385 ft | 174 kts | 36° |
| 2026-04-22 21:18 | 6.22119 | -75.41068 | 9735 ft | 178 kts | 81° |
| 2026-04-22 21:18 | 6.22178 | -75.39786 | 9914 ft | 190 kts | 85° |
| 2026-04-22 21:19 | 6.22502 | -75.38508 | 10263 ft | 192 kts | 66° |
| 2026-04-22 21:19 | 6.23055 | -75.37268 | 10576 ft | 197 kts | 65° |
| 2026-04-22 21:19 | 6.23640 | -75.36016 | 10960 ft | 198 kts | 63° |
| 2026-04-22 21:19 | 6.24250 | -75.34751 | 11215 ft | 208 kts | 64° |
| 2026-04-22 21:20 | 6.24914 | -75.33379 | 11311 ft | 228 kts | 63° |
| 2026-04-22 21:20 | 6.25639 | -75.31885 | 11429 ft | 247 kts | 63° |
| 2026-04-22 21:20 | 6.26428 | -75.30265 | 11513 ft | 270 kts | 63° |
| 2026-04-22 21:20 | 6.27293 | -75.28494 | 11664 ft | 294 kts | 63° |
| 2026-04-22 21:21 | 6.28227 | -75.26582 | 11781 ft | 316 kts | 62° |
| 2026-04-22 21:21 | 6.29574 | -75.24768 | 11892 ft | 335 kts | 38° |
| 2026-04-22 21:21 | 6.31699 | -75.23710 | 12008 ft | 352 kts | 12° |
| 2026-04-22 21:21 | 6.34169 | -75.23442 | 12152 ft | 362 kts | 357° |
| 2026-04-22 21:22 | 6.36695 | -75.23608 | 12656 ft | 366 kts | 353° |
| 2026-04-22 21:22 | 6.39208 | -75.23902 | 13204 ft | 370 kts | 352° |
| 2026-04-22 21:22 | 6.41779 | -75.24174 | 13766 ft | 374 kts | 354° |
| 2026-04-22 21:22 | 6.44386 | -75.24356 | 14268 ft | 377 kts | 356° |
| 2026-04-22 21:23 | 6.47024 | -75.24411 | 14742 ft | 381 kts | 360° |
| 2026-04-22 21:23 | 6.49686 | -75.24274 | 15243 ft | 385 kts | 4° |
| 2026-04-22 21:23 | 6.52362 | -75.24013 | 15738 ft | 388 kts | 6° |
| 2026-04-22 21:23 | 6.55053 | -75.23701 | 16207 ft | 392 kts | 5° |
| 2026-04-22 21:24 | 6.57770 | -75.23387 | 16704 ft | 394 kts | 5° |
| 2026-04-22 21:24 | 6.60510 | -75.23094 | 17192 ft | 398 kts | 5° |
| 2026-04-22 21:24 | 6.63278 | -75.22829 | 17683 ft | 400 kts | 4° |
| 2026-04-22 21:24 | 6.66038 | -75.22404 | 18167 ft | 405 kts | 16° |
| 2026-04-22 21:25 | 6.68685 | -75.21404 | 18632 ft | 408 kts | 21° |
| 2026-04-22 21:25 | 6.71321 | -75.20326 | 19029 ft | 411 kts | 21° |
| 2026-04-22 21:25 | 6.73978 | -75.19235 | 19468 ft | 414 kts | 22° |
| 2026-04-22 21:25 | 6.76677 | -75.18201 | 19903 ft | 416 kts | 18° |
| 2026-04-22 21:26 | 6.79449 | -75.17319 | 20345 ft | 419 kts | 17° |
| 2026-04-22 21:26 | 6.82243 | -75.16450 | 20810 ft | 422 kts | 17° |
| 2026-04-22 21:26 | 6.85066 | -75.15599 | 21227 ft | 425 kts | 13° |
| 2026-04-22 21:26 | 6.88001 | -75.15318 | 21625 ft | 426 kts | 355° |
| 2026-04-22 21:27 | 6.90964 | -75.15636 | 22011 ft | 429 kts | 352° |
| 2026-04-22 21:27 | 6.93931 | -75.16031 | 22416 ft | 431 kts | 352° |
| 2026-04-22 21:27 | 6.96910 | -75.16431 | 22780 ft | 434 kts | 352° |
| 2026-04-22 21:27 | 6.99910 | -75.16838 | 23161 ft | 436 kts | 352° |
| 2026-04-22 21:28 | 7.02931 | -75.17250 | 23509 ft | 439 kts | 352° |
| 2026-04-22 21:28 | 7.05925 | -75.17655 | 23761 ft | 441 kts | 352° |
| 2026-04-22 21:28 | 7.08981 | -75.18025 | 24061 ft | 444 kts | 356° |
| 2026-04-22 21:28 | 7.12071 | -75.17979 | 24328 ft | 446 kts | 6° |
| 2026-04-22 21:29 | 7.15153 | -75.17526 | 24635 ft | 448 kts | 9° |
| 2026-04-22 21:29 | 7.18237 | -75.17044 | 24902 ft | 450 kts | 8° |
| 2026-04-22 21:29 | 7.21338 | -75.16573 | 25207 ft | 451 kts | 8° |
| 2026-04-22 21:29 | 7.24457 | -75.16106 | 25451 ft | 454 kts | 8° |
| 2026-04-22 21:30 | 7.27585 | -75.15641 | 25744 ft | 456 kts | 8° |
| 2026-04-22 21:30 | 7.30732 | -75.15168 | 25989 ft | 459 kts | 8° |
| 2026-04-22 21:30 | 7.33896 | -75.14690 | 26285 ft | 460 kts | 8° |
| 2026-04-22 21:30 | 7.37071 | -75.14210 | 26503 ft | 462 kts | 8° |
| 2026-04-22 21:31 | 7.40254 | -75.13728 | 26786 ft | 463 kts | 8° |
| 2026-04-22 21:31 | 7.43450 | -75.13242 | 27004 ft | 466 kts | 8° |
| 2026-04-22 21:31 | 7.46663 | -75.12753 | 27281 ft | 467 kts | 8° |
| 2026-04-22 21:31 | 7.49883 | -75.12265 | 27483 ft | 470 kts | 8° |
| 2026-04-22 21:32 | 7.53074 | -75.11781 | 27784 ft | 471 kts | 8° |
| 2026-04-22 21:32 | 7.56320 | -75.11285 | 28034 ft | 473 kts | 9° |
| 2026-04-22 21:32 | 7.59583 | -75.10790 | 28315 ft | 474 kts | 9° |
| 2026-04-22 21:32 | 7.62854 | -75.10296 | 28558 ft | 476 kts | 8° |
| 2026-04-22 21:33 | 7.66141 | -75.09801 | 28839 ft | 477 kts | 9° |
| 2026-04-22 21:33 | 7.69420 | -75.09304 | 29193 ft | 477 kts | 8° |
| 2026-04-22 21:33 | 7.72691 | -75.08805 | 29617 ft | 475 kts | 8° |
| 2026-04-22 21:33 | 7.75951 | -75.08307 | 30032 ft | 473 kts | 9° |
| 2026-04-22 21:34 | 7.79199 | -75.07809 | 30357 ft | 472 kts | 9° |
| 2026-04-22 21:34 | 7.82447 | -75.07308 | 30677 ft | 472 kts | 9° |
| 2026-04-22 21:34 | 7.85691 | -75.06806 | 30984 ft | 472 kts | 9° |
| 2026-04-22 21:34 | 7.88941 | -75.06299 | 31299 ft | 472 kts | 9° |
| 2026-04-22 21:35 | 7.92189 | -75.05794 | 31607 ft | 472 kts | 9° |
| 2026-04-22 21:35 | 7.95432 | -75.05293 | 31916 ft | 472 kts | 9° |
| 2026-04-22 21:35 | 7.98684 | -75.04796 | 32235 ft | 472 kts | 9° |
| 2026-04-22 21:35 | 8.01932 | -75.04302 | 32561 ft | 472 kts | 9° |
| 2026-04-22 21:36 | 8.05186 | -75.03806 | 32889 ft | 472 kts | 9° |
| 2026-04-22 21:36 | 8.08435 | -75.03307 | 33209 ft | 473 kts | 9° |
| 2026-04-22 21:36 | 8.11686 | -75.02806 | 33534 ft | 473 kts | 9° |
| 2026-04-22 21:36 | 8.14898 | -75.02310 | 33802 ft | 474 kts | 9° |
| 2026-04-22 21:37 | 8.21468 | -75.01292 | 33859 ft | 481 kts | 9° |
| 2026-04-22 21:37 | 8.28089 | -75.00268 | 33859 ft | 482 kts | 9° |
| 2026-04-22 21:38 | 8.34720 | -74.99246 | 33859 ft | 482 kts | 9° |
| 2026-04-22 21:38 | 8.41349 | -74.98225 | 33859 ft | 482 kts | 9° |
| 2026-04-22 21:39 | 8.47980 | -74.97203 | 33860 ft | 482 kts | 9° |
| 2026-04-22 21:39 | 8.54616 | -74.96176 | 33860 ft | 482 kts | 9° |
| 2026-04-22 21:40 | 8.61249 | -74.95142 | 33863 ft | 483 kts | 9° |
| 2026-04-22 21:40 | 8.67891 | -74.94112 | 33869 ft | 483 kts | 9° |
| 2026-04-22 21:41 | 8.74539 | -74.93090 | 33868 ft | 483 kts | 9° |
| 2026-04-22 21:41 | 8.81183 | -74.92071 | 33875 ft | 482 kts | 8° |
| 2026-04-22 21:42 | 8.87817 | -74.91048 | 33878 ft | 482 kts | 8° |
| 2026-04-22 21:42 | 8.94391 | -74.90023 | 33879 ft | 481 kts | 8° |
| 2026-04-22 21:43 | 9.01006 | -74.88998 | 33879 ft | 481 kts | 8° |
| 2026-04-22 21:43 | 9.07623 | -74.87972 | 33876 ft | 480 kts | 8° |
| 2026-04-22 21:44 | 9.14228 | -74.86941 | 33873 ft | 480 kts | 8° |
| 2026-04-22 21:44 | 9.20834 | -74.85922 | 33878 ft | 480 kts | 8° |
| 2026-04-22 21:45 | 9.27392 | -74.84713 | 33882 ft | 479 kts | 17° |
| 2026-04-22 21:45 | 9.33408 | -74.81872 | 33882 ft | 478 kts | 31° |
| 2026-04-22 21:46 | 9.39122 | -74.78412 | 34316 ft | 478 kts | 31° |
| 2026-04-22 21:46 | 9.41939 | -74.76720 | 34609 ft | 477 kts | 31° |
| 2026-04-22 21:46 | 9.44826 | -74.74987 | 34910 ft | 476 kts | 31° |
| 2026-04-22 21:47 | 9.47637 | -74.73299 | 35192 ft | 475 kts | 31° |
| 2026-04-22 21:47 | 9.50476 | -74.71590 | 35479 ft | 475 kts | 31° |
| 2026-04-22 21:47 | 9.53316 | -74.69879 | 35725 ft | 475 kts | 31° |
| 2026-04-22 21:47 | 9.56155 | -74.68165 | 35986 ft | 475 kts | 31° |
| 2026-04-22 21:48 | 9.58989 | -74.66452 | 36250 ft | 474 kts | 31° |
| 2026-04-22 21:48 | 9.61817 | -74.64741 | 36508 ft | 474 kts | 31° |
| 2026-04-22 21:48 | 9.64648 | -74.63031 | 36752 ft | 473 kts | 31° |
| 2026-04-22 21:48 | 9.67476 | -74.61320 | 36849 ft | 474 kts | 31° |
| 2026-04-22 21:49 | 9.73138 | -74.57899 | 36853 ft | 473 kts | 31° |
| 2026-04-22 21:49 | 9.77838 | -74.55063 | 36859 ft | 473 kts | 31° |
| 2026-04-22 21:50 | 9.83495 | -74.51641 | 36859 ft | 473 kts | 31° |
| 2026-04-22 21:50 | 9.89141 | -74.48224 | 36854 ft | 472 kts | 31° |
| 2026-04-22 21:51 | 9.94787 | -74.44805 | 36863 ft | 473 kts | 31° |
| 2026-04-22 21:52 | 10.03265 | -74.39676 | 36873 ft | 473 kts | 31° |
| 2026-04-22 21:52 | 10.08927 | -74.36254 | 36877 ft | 474 kts | 31° |
| 2026-04-22 21:53 | 10.14549 | -74.32852 | 36879 ft | 473 kts | 31° |
| 2026-04-22 21:53 | 10.20201 | -74.29422 | 36884 ft | 473 kts | 31° |
| 2026-04-22 21:54 | 10.25849 | -74.25991 | 36880 ft | 473 kts | 31° |
| 2026-04-22 21:54 | 10.31496 | -74.22560 | 36880 ft | 473 kts | 31° |
| 2026-04-22 21:55 | 10.37144 | -74.19128 | 36896 ft | 473 kts | 31° |
| 2026-04-22 21:55 | 10.42800 | -74.15697 | 36893 ft | 473 kts | 31° |
| 2026-04-22 21:56 | 10.48450 | -74.12266 | 36903 ft | 473 kts | 31° |
| 2026-04-22 21:56 | 10.54099 | -74.08833 | 36903 ft | 473 kts | 31° |
| 2026-04-22 21:57 | 10.59711 | -74.05428 | 36938 ft | 473 kts | 31° |
| 2026-04-22 21:57 | 10.65366 | -74.01987 | 36957 ft | 473 kts | 31° |
| 2026-04-22 21:58 | 10.71010 | -73.98545 | 36963 ft | 473 kts | 31° |
| 2026-04-22 21:58 | 10.76659 | -73.95108 | 36962 ft | 473 kts | 31° |
| 2026-04-22 21:59 | 10.82308 | -73.91673 | 37009 ft | 473 kts | 31° |
| 2026-04-22 21:59 | 10.87956 | -73.88227 | 37007 ft | 473 kts | 31° |
| 2026-04-22 22:00 | 10.93597 | -73.84785 | 37009 ft | 473 kts | 31° |
| 2026-04-22 22:00 | 10.99240 | -73.81345 | 37007 ft | 473 kts | 31° |
| 2026-04-22 22:01 | 11.04894 | -73.77899 | 37028 ft | 474 kts | 31° |
| 2026-04-22 22:01 | 11.10503 | -73.74468 | 37028 ft | 474 kts | 31° |
| 2026-04-22 22:02 | 11.16159 | -73.71011 | 36979 ft | 473 kts | 30° |
| 2026-04-22 22:02 | 11.22242 | -73.68546 | 36988 ft | 472 kts | 11° |
| 2026-04-22 22:03 | 11.28733 | -73.67622 | 36982 ft | 471 kts | 6° |
| 2026-04-22 22:03 | 11.35247 | -73.66777 | 36932 ft | 472 kts | 6° |
| 2026-04-22 22:04 | 11.41768 | -73.65912 | 36935 ft | 472 kts | 6° |
| 2026-04-22 22:04 | 11.48291 | -73.65053 | 36911 ft | 473 kts | 6° |
| 2026-04-22 22:05 | 11.54778 | -73.64206 | 36912 ft | 473 kts | 6° |
| 2026-04-22 22:05 | 11.61313 | -73.63352 | 36911 ft | 473 kts | 6° |
| 2026-04-22 22:06 | 11.67853 | -73.62493 | 36908 ft | 474 kts | 6° |
| 2026-04-22 22:06 | 11.74389 | -73.61636 | 36908 ft | 474 kts | 6° |
| 2026-04-22 22:07 | 11.80933 | -73.60776 | 36909 ft | 474 kts | 6° |
| 2026-04-22 22:07 | 11.87475 | -73.59918 | 36918 ft | 474 kts | 6° |
| 2026-04-22 22:08 | 11.94021 | -73.59063 | 36919 ft | 474 kts | 5° |
| 2026-04-22 22:08 | 12.00564 | -73.58213 | 36925 ft | 474 kts | 6° |
| 2026-04-22 22:09 | 12.07101 | -73.57346 | 36921 ft | 473 kts | 6° |
| 2026-04-22 22:09 | 12.13632 | -73.56485 | 36923 ft | 473 kts | 5° |
| 2026-04-22 22:10 | 12.20164 | -73.55628 | 36928 ft | 473 kts | 6° |
| 2026-04-22 22:10 | 12.26695 | -73.54769 | 36934 ft | 473 kts | 5° |
| 2026-04-22 22:11 | 12.33175 | -73.53913 | 36932 ft | 473 kts | 5° |
| 2026-04-22 22:11 | 12.39698 | -73.53054 | 36930 ft | 472 kts | 5° |
| 2026-04-22 22:12 | 12.46215 | -73.52193 | 36933 ft | 472 kts | 5° |
| 2026-04-22 22:12 | 12.52737 | -73.51335 | 36931 ft | 472 kts | 5° |
| 2026-04-22 22:13 | 12.59257 | -73.50475 | 36933 ft | 472 kts | 5° |
| 2026-04-22 22:13 | 12.65770 | -73.49616 | 36936 ft | 472 kts | 5° |
| 2026-04-22 22:14 | 12.72286 | -73.48758 | 36941 ft | 472 kts | 5° |
| 2026-04-22 22:14 | 12.78796 | -73.47896 | 36941 ft | 472 kts | 5° |
| 2026-04-22 22:15 | 12.85310 | -73.47034 | 36945 ft | 471 kts | 5° |
| 2026-04-22 22:15 | 12.91819 | -73.46173 | 36940 ft | 471 kts | 5° |
| 2026-04-22 22:16 | 12.98319 | -73.45310 | 36943 ft | 471 kts | 5° |
| 2026-04-22 22:16 | 13.04779 | -73.44455 | 36941 ft | 471 kts | 5° |
| 2026-04-22 22:17 | 13.11284 | -73.43594 | 36945 ft | 471 kts | 5° |
| 2026-04-22 22:17 | 13.17799 | -73.42726 | 36944 ft | 471 kts | 5° |
| 2026-04-22 22:18 | 13.24306 | -73.41863 | 36944 ft | 471 kts | 5° |
| 2026-04-22 22:18 | 13.30809 | -73.41002 | 36950 ft | 471 kts | 5° |
| 2026-04-22 22:19 | 13.37318 | -73.40128 | 36953 ft | 471 kts | 4° |
| 2026-04-22 22:19 | 13.43825 | -73.39270 | 36950 ft | 471 kts | 4° |
| 2026-04-22 22:20 | 13.50325 | -73.38406 | 36949 ft | 471 kts | 4° |
| 2026-04-22 22:20 | 13.56828 | -73.37540 | 36950 ft | 471 kts | 4° |
| 2026-04-22 22:21 | 13.63283 | -73.36683 | 36951 ft | 471 kts | 4° |
| 2026-04-22 22:21 | 13.69782 | -73.35822 | 36956 ft | 471 kts | 4° |
| 2026-04-22 22:22 | 13.76282 | -73.34960 | 36959 ft | 470 kts | 4° |
| 2026-04-22 22:22 | 13.82763 | -73.34033 | 36958 ft | 472 kts | 9° |
| 2026-04-22 22:22 | 13.85912 | -73.33044 | 36958 ft | 476 kts | 20° |
| 2026-04-22 22:23 | 13.88862 | -73.31483 | 36949 ft | 478 kts | 31° |
| 2026-04-22 22:23 | 13.91508 | -73.29398 | 36957 ft | 481 kts | 42° |
| 2026-04-22 22:23 | 13.93784 | -73.26873 | 36954 ft | 482 kts | 49° |
| 2026-04-22 22:24 | 13.98133 | -73.21614 | 36945 ft | 483 kts | 49° |
| 2026-04-22 22:24 | 14.02494 | -73.16350 | 36940 ft | 483 kts | 48° |
| 2026-04-22 22:25 | 14.06836 | -73.11125 | 36942 ft | 484 kts | 48° |
| 2026-04-22 22:25 | 14.11205 | -73.05851 | 36954 ft | 484 kts | 48° |
| 2026-04-22 22:26 | 14.15571 | -73.00574 | 36951 ft | 484 kts | 49° |
| 2026-04-22 22:26 | 14.19932 | -72.95291 | 36959 ft | 484 kts | 49° |
| 2026-04-22 22:27 | 14.24302 | -72.89997 | 36949 ft | 485 kts | 49° |
| 2026-04-22 22:27 | 14.28670 | -72.84699 | 36959 ft | 485 kts | 49° |
| 2026-04-22 22:28 | 14.33013 | -72.79435 | 36961 ft | 485 kts | 48° |
| 2026-04-22 22:28 | 14.37390 | -72.74134 | 36955 ft | 486 kts | 48° |
| 2026-04-22 22:29 | 14.41765 | -72.68824 | 36952 ft | 486 kts | 48° |
| 2026-04-22 22:29 | 14.46184 | -72.63545 | 36955 ft | 486 kts | 47° |
| 2026-04-22 22:30 | 14.50611 | -72.58276 | 36962 ft | 486 kts | 48° |
| 2026-04-22 22:30 | 14.55035 | -72.52978 | 36949 ft | 487 kts | 48° |
| 2026-04-22 22:31 | 14.59404 | -72.47632 | 36957 ft | 487 kts | 49° |
| 2026-04-22 22:31 | 14.63704 | -72.42272 | 36958 ft | 488 kts | 49° |
| 2026-04-22 22:32 | 14.68059 | -72.36900 | 36971 ft | 488 kts | 48° |
| 2026-04-22 22:32 | 14.72443 | -72.31555 | 36965 ft | 488 kts | 48° |
| 2026-04-22 22:33 | 14.76834 | -72.26197 | 36957 ft | 488 kts | 48° |
| 2026-04-22 22:33 | 14.81209 | -72.20838 | 36952 ft | 488 kts | 49° |
| 2026-04-22 22:34 | 14.85591 | -72.15464 | 36961 ft | 489 kts | 49° |
| 2026-04-22 22:34 | 14.89971 | -72.10084 | 36960 ft | 489 kts | 49° |
| 2026-04-22 22:35 | 14.94352 | -72.04702 | 36980 ft | 489 kts | 48° |
| 2026-04-22 22:35 | 14.98736 | -71.99320 | 36969 ft | 489 kts | 48° |
| 2026-04-22 22:36 | 15.03123 | -71.93932 | 36969 ft | 490 kts | 48° |
| 2026-04-22 22:36 | 15.07477 | -71.88572 | 36968 ft | 490 kts | 49° |
| 2026-04-22 22:37 | 15.11859 | -71.83169 | 36969 ft | 490 kts | 48° |
| 2026-04-22 22:37 | 15.16244 | -71.77763 | 36973 ft | 490 kts | 49° |
| 2026-04-22 22:38 | 15.20628 | -71.72357 | 36969 ft | 490 kts | 48° |
| 2026-04-22 22:38 | 15.25018 | -71.66946 | 36978 ft | 491 kts | 48° |
| 2026-04-22 22:39 | 15.29406 | -71.61534 | 36976 ft | 491 kts | 48° |
| 2026-04-22 22:39 | 15.33798 | -71.56110 | 36965 ft | 491 kts | 48° |
| 2026-04-22 22:40 | 15.38186 | -71.50689 | 36963 ft | 491 kts | 48° |
| 2026-04-22 22:40 | 15.42571 | -71.45259 | 36981 ft | 491 kts | 48° |
| 2026-04-22 22:41 | 15.46952 | -71.39830 | 36983 ft | 491 kts | 48° |
| 2026-04-22 22:41 | 15.51338 | -71.34394 | 36970 ft | 491 kts | 48° |
| 2026-04-22 22:42 | 15.54987 | -71.29883 | 36983 ft | 491 kts | 48° |
| 2026-04-22 22:42 | 15.60176 | -71.23632 | 36976 ft | 492 kts | 47° |
| 2026-04-22 22:43 | 15.64679 | -71.18284 | 36975 ft | 492 kts | 47° |
| 2026-04-22 22:43 | 15.68409 | -71.13835 | 36975 ft | 492 kts | 47° |
| 2026-04-22 22:44 | 15.72882 | -71.08454 | 36976 ft | 492 kts | 47° |
| 2026-04-22 22:44 | 15.77336 | -71.03046 | 36981 ft | 492 kts | 48° |
| 2026-04-22 22:45 | 15.81735 | -70.97590 | 36983 ft | 493 kts | 48° |
| 2026-04-22 22:45 | 15.86135 | -70.92127 | 36986 ft | 493 kts | 48° |
| 2026-04-22 22:46 | 15.90555 | -70.86678 | 36981 ft | 493 kts | 48° |
| 2026-04-22 22:46 | 15.94951 | -70.81263 | 36978 ft | 493 kts | 48° |
| 2026-04-22 22:47 | 15.99364 | -70.75794 | 36977 ft | 494 kts | 50° |
| 2026-04-22 22:47 | 16.03226 | -70.69873 | 36979 ft | 495 kts | 56° |
| 2026-04-22 22:48 | 16.06981 | -70.63869 | 36979 ft | 495 kts | 56° |
| 2026-04-22 22:48 | 16.10748 | -70.57867 | 36980 ft | 496 kts | 56° |
| 2026-04-22 22:49 | 16.14517 | -70.51864 | 36986 ft | 496 kts | 56° |
| 2026-04-22 22:49 | 16.18283 | -70.45847 | 36980 ft | 496 kts | 56° |
| 2026-04-22 22:50 | 16.22058 | -70.39817 | 36980 ft | 497 kts | 56° |
| 2026-04-22 22:50 | 16.25823 | -70.33783 | 36983 ft | 497 kts | 56° |
| 2026-04-22 22:51 | 16.29563 | -70.27786 | 36985 ft | 497 kts | 56° |
| 2026-04-22 22:51 | 16.33324 | -70.21748 | 36986 ft | 497 kts | 56° |
| 2026-04-22 22:52 | 16.37090 | -70.15702 | 36988 ft | 497 kts | 56° |
| 2026-04-22 22:52 | 16.40858 | -70.09661 | 36989 ft | 497 kts | 56° |
| 2026-04-22 22:53 | 16.44634 | -70.03613 | 36990 ft | 498 kts | 56° |
| 2026-04-22 22:53 | 16.48399 | -69.97556 | 36988 ft | 499 kts | 56° |
| 2026-04-22 22:54 | 16.52166 | -69.91485 | 36989 ft | 499 kts | 56° |
| 2026-04-22 22:54 | 16.55938 | -69.85411 | 36989 ft | 499 kts | 56° |
| 2026-04-22 22:55 | 16.59711 | -69.79329 | 36987 ft | 500 kts | 56° |
| 2026-04-22 22:55 | 16.65363 | -69.70193 | 36987 ft | 500 kts | 56° |
| 2026-04-22 22:56 | 16.69142 | -69.64097 | 36989 ft | 500 kts | 56° |
| 2026-04-22 22:56 | 16.72885 | -69.58040 | 36997 ft | 500 kts | 56° |
| 2026-04-22 22:57 | 16.76656 | -69.51930 | 36993 ft | 501 kts | 56° |
| 2026-04-22 22:57 | 16.80428 | -69.45812 | 36985 ft | 501 kts | 56° |
| 2026-04-22 22:58 | 16.84205 | -69.39691 | 36986 ft | 502 kts | 56° |
| 2026-04-22 22:58 | 16.87987 | -69.33561 | 36987 ft | 502 kts | 56° |
| 2026-04-22 22:59 | 16.91768 | -69.27430 | 36994 ft | 502 kts | 56° |
| 2026-04-22 22:59 | 16.95516 | -69.21269 | 36995 ft | 502 kts | 57° |
| 2026-04-22 23:00 | 16.99124 | -69.15016 | 36992 ft | 503 kts | 58° |
| 2026-04-22 23:00 | 17.02698 | -69.08739 | 36995 ft | 503 kts | 58° |
| 2026-04-22 23:01 | 17.06307 | -69.02481 | 36998 ft | 503 kts | 57° |
| 2026-04-22 23:01 | 17.09942 | -68.96239 | 36999 ft | 503 kts | 57° |
| 2026-04-22 23:02 | 17.13623 | -68.90028 | 36999 ft | 502 kts | 56° |
| 2026-04-22 23:02 | 17.17355 | -68.83855 | 37001 ft | 502 kts | 56° |
| 2026-04-22 23:03 | 17.21091 | -68.77677 | 36999 ft | 502 kts | 56° |
| 2026-04-22 23:03 | 17.24787 | -68.71472 | 37007 ft | 503 kts | 57° |
| 2026-04-22 23:04 | 17.28420 | -68.65278 | 36999 ft | 503 kts | 57° |
| 2026-04-22 23:04 | 17.32080 | -68.59027 | 36995 ft | 504 kts | 57° |
| 2026-04-22 23:05 | 17.35753 | -68.52778 | 36997 ft | 504 kts | 57° |
| 2026-04-22 23:05 | 17.39434 | -68.46522 | 37000 ft | 504 kts | 57° |
| 2026-04-22 23:06 | 17.43108 | -68.40268 | 36998 ft | 504 kts | 57° |
| 2026-04-22 23:06 | 17.46782 | -68.34002 | 36999 ft | 505 kts | 57° |
| 2026-04-22 23:07 | 17.50454 | -68.27740 | 37005 ft | 505 kts | 57° |
| 2026-04-22 23:07 | 17.54127 | -68.21475 | 37013 ft | 505 kts | 57° |
| 2026-04-22 23:08 | 17.57805 | -68.15193 | 37001 ft | 506 kts | 57° |
| 2026-04-22 23:08 | 17.61478 | -68.08908 | 36999 ft | 506 kts | 57° |
| 2026-04-22 23:09 | 17.65129 | -68.02588 | 36994 ft | 507 kts | 60° |
| 2026-04-22 23:09 | 17.67581 | -67.95672 | 36994 ft | 508 kts | 78° |
| 2026-04-22 23:10 | 17.69077 | -67.88437 | 36999 ft | 508 kts | 78° |
| 2026-04-22 23:10 | 17.70587 | -67.81247 | 36966 ft | 507 kts | 78° |
| 2026-04-22 23:11 | 17.71355 | -67.77625 | 36128 ft | 513 kts | 78° |
| 2026-04-22 23:11 | 17.72134 | -67.73948 | 35044 ft | 518 kts | 78° |
| 2026-04-22 23:11 | 17.72910 | -67.70262 | 34010 ft | 516 kts | 78° |
| 2026-04-22 23:11 | 17.73680 | -67.66595 | 32864 ft | 515 kts | 77° |
| 2026-04-22 23:12 | 17.74447 | -67.62929 | 31760 ft | 514 kts | 77° |
| 2026-04-22 23:12 | 17.75210 | -67.59261 | 30707 ft | 519 kts | 77° |
| 2026-04-22 23:12 | 17.75980 | -67.55551 | 29602 ft | 518 kts | 77° |
| 2026-04-22 23:12 | 17.76736 | -67.51887 | 28432 ft | 510 kts | 77° |
| 2026-04-22 23:13 | 17.77480 | -67.48285 | 27305 ft | 502 kts | 76° |
| 2026-04-22 23:13 | 17.78217 | -67.44738 | 26270 ft | 495 kts | 76° |
| 2026-04-22 23:13 | 17.78950 | -67.41223 | 25685 ft | 490 kts | 76° |
| 2026-04-22 23:13 | 17.79675 | -67.37739 | 24996 ft | 487 kts | 76° |
| 2026-04-22 23:14 | 17.80385 | -67.34310 | 24333 ft | 474 kts | 76° |
| 2026-04-22 23:14 | 17.81080 | -67.30954 | 23698 ft | 470 kts | 76° |
| 2026-04-22 23:14 | 17.81771 | -67.27607 | 22997 ft | 468 kts | 76° |
| 2026-04-22 23:14 | 17.82454 | -67.24294 | 22392 ft | 458 kts | 76° |
| 2026-04-22 23:15 | 17.83115 | -67.21080 | 21830 ft | 445 kts | 77° |
| 2026-04-22 23:15 | 17.83768 | -67.17914 | 21276 ft | 443 kts | 77° |
| 2026-04-22 23:15 | 17.84417 | -67.14767 | 20727 ft | 441 kts | 77° |
| 2026-04-22 23:15 | 17.85063 | -67.11631 | 20172 ft | 439 kts | 77° |
| 2026-04-22 23:16 | 17.85707 | -67.08507 | 19610 ft | 437 kts | 77° |
| 2026-04-22 23:16 | 17.86352 | -67.05386 | 19034 ft | 436 kts | 77° |
| 2026-04-22 23:16 | 17.86991 | -67.02284 | 18456 ft | 434 kts | 77° |
| 2026-04-22 23:16 | 17.87621 | -66.99205 | 17896 ft | 425 kts | 77° |
| 2026-04-22 23:17 | 17.88229 | -66.96224 | 17190 ft | 410 kts | 77° |
| 2026-04-22 23:17 | 17.88805 | -66.93391 | 16639 ft | 397 kts | 77° |
| 2026-04-22 23:17 | 17.89374 | -66.90595 | 16059 ft | 387 kts | 77° |
| 2026-04-22 23:17 | 17.90024 | -66.87860 | 15502 ft | 385 kts | 70° |
| 2026-04-22 23:18 | 17.91132 | -66.85324 | 14957 ft | 381 kts | 58° |
| 2026-04-22 23:18 | 17.92691 | -66.83095 | 14400 ft | 377 kts | 46° |
| 2026-04-22 23:18 | 17.94536 | -66.81150 | 13847 ft | 375 kts | 43° |
| 2026-04-22 23:18 | 17.96361 | -66.79254 | 13249 ft | 364 kts | 43° |
| 2026-04-22 23:19 | 17.98155 | -66.77384 | 12699 ft | 361 kts | 44° |
| 2026-04-22 23:19 | 17.99933 | -66.75530 | 12155 ft | 359 kts | 44° |
| 2026-04-22 23:19 | 18.01700 | -66.73685 | 11609 ft | 357 kts | 44° |
| 2026-04-22 23:19 | 18.03456 | -66.71854 | 11065 ft | 355 kts | 43° |
| 2026-04-22 23:20 | 18.05203 | -66.70031 | 10563 ft | 352 kts | 44° |
| 2026-04-22 23:20 | 18.06902 | -66.68255 | 10431 ft | 337 kts | 44° |
| 2026-04-22 23:20 | 18.08528 | -66.66551 | 10312 ft | 324 kts | 44° |
| 2026-04-22 23:20 | 18.10094 | -66.64909 | 10195 ft | 312 kts | 44° |
| 2026-04-22 23:21 | 18.11603 | -66.63332 | 10082 ft | 301 kts | 44° |
| 2026-04-22 23:21 | 18.13061 | -66.61809 | 9786 ft | 293 kts | 44° |
| 2026-04-22 23:21 | 18.14484 | -66.60321 | 9213 ft | 290 kts | 44° |
| 2026-04-22 23:21 | 18.15920 | -66.58819 | 8625 ft | 286 kts | 44° |
| 2026-04-22 23:22 | 18.17303 | -66.57372 | 8060 ft | 282 kts | 44° |
| 2026-04-22 23:22 | 18.18687 | -66.55922 | 7517 ft | 279 kts | 45° |
| 2026-04-22 23:22 | 18.20030 | -66.54514 | 7297 ft | 263 kts | 45° |
| 2026-04-22 23:22 | 18.21274 | -66.53209 | 7235 ft | 242 kts | 45° |
| 2026-04-22 23:23 | 18.22443 | -66.51982 | 7158 ft | 235 kts | 45° |
| 2026-04-22 23:23 | 18.23592 | -66.50778 | 7061 ft | 233 kts | 44° |
| 2026-04-22 23:23 | 18.24785 | -66.49641 | 7020 ft | 232 kts | 31° |
| 2026-04-22 23:23 | 18.26300 | -66.49093 | 6936 ft | 231 kts | 10° |
| 2026-04-22 23:24 | 18.27890 | -66.48861 | 6647 ft | 230 kts | 7° |
| 2026-04-22 23:24 | 18.29474 | -66.48665 | 6370 ft | 229 kts | 6° |
| 2026-04-22 23:24 | 18.31053 | -66.48472 | 6042 ft | 229 kts | 6° |
| 2026-04-22 23:24 | 18.32634 | -66.48282 | 5740 ft | 228 kts | 6° |
| 2026-04-22 23:25 | 18.34203 | -66.48097 | 5440 ft | 227 kts | 6° |
| 2026-04-22 23:25 | 18.35771 | -66.47915 | 5127 ft | 227 kts | 6° |
| 2026-04-22 23:25 | 18.37333 | -66.47734 | 4866 ft | 224 kts | 6° |
| 2026-04-22 23:25 | 18.38850 | -66.47561 | 4736 ft | 214 kts | 6° |
| 2026-04-22 23:26 | 18.40265 | -66.47346 | 4594 ft | 197 kts | 19° |
| 2026-04-22 23:26 | 18.41319 | -66.46515 | 4352 ft | 190 kts | 58° |
| 2026-04-22 23:26 | 18.41694 | -66.45203 | 4091 ft | 188 kts | 82° |
| 2026-04-22 23:26 | 18.41794 | -66.43830 | 3801 ft | 187 kts | 85° |
| 2026-04-22 23:27 | 18.41855 | -66.42483 | 3502 ft | 186 kts | 86° |
| 2026-04-22 23:27 | 18.41909 | -66.41130 | 3198 ft | 184 kts | 86° |
| 2026-04-22 23:27 | 18.41957 | -66.39787 | 3022 ft | 182 kts | 86° |
| 2026-04-22 23:27 | 18.42000 | -66.38445 | 3009 ft | 184 kts | 86° |
| 2026-04-22 23:28 | 18.42049 | -66.37092 | 3010 ft | 186 kts | 86° |
| 2026-04-22 23:28 | 18.42101 | -66.35736 | 3002 ft | 185 kts | 86° |
| 2026-04-22 23:28 | 18.42154 | -66.34387 | 3006 ft | 185 kts | 86° |
| 2026-04-22 23:28 | 18.42203 | -66.33042 | 3013 ft | 184 kts | 86° |
| 2026-04-22 23:29 | 18.42246 | -66.31735 | 2988 ft | 170 kts | 85° |
| 2026-04-22 23:29 | 18.42292 | -66.30537 | 3017 ft | 160 kts | 84° |
| 2026-04-22 23:29 | 18.42458 | -66.29422 | 3010 ft | 146 kts | 77° |
| 2026-04-22 23:29 | 18.42655 | -66.28389 | 3010 ft | 141 kts | 77° |
| 2026-04-22 23:30 | 18.42847 | -66.27392 | 3007 ft | 138 kts | 76° |
| 2026-04-22 23:30 | 18.43046 | -66.26399 | 3010 ft | 137 kts | 76° |
| 2026-04-22 23:30 | 18.43176 | -66.25392 | 3007 ft | 139 kts | 79° |
| 2026-04-22 23:30 | 18.43286 | -66.24377 | 2996 ft | 140 kts | 83° |
| 2026-04-22 23:31 | 18.43341 | -66.23347 | 3004 ft | 141 kts | 85° |
| 2026-04-22 23:31 | 18.43367 | -66.22318 | 2999 ft | 141 kts | 86° |
| 2026-04-22 23:31 | 18.43378 | -66.21285 | 3002 ft | 141 kts | 86° |
| 2026-04-22 23:31 | 18.43383 | -66.20246 | 3000 ft | 142 kts | 87° |
| 2026-04-22 23:32 | 18.43384 | -66.19559 | 2998 ft | 141 kts | 88° |
| 2026-04-22 23:32 | 18.43385 | -66.18526 | 2979 ft | 142 kts | 87° |
| 2026-04-22 23:32 | 18.43384 | -66.17487 | 2867 ft | 141 kts | 88° |
| 2026-04-22 23:32 | 18.43383 | -66.16458 | 2711 ft | 141 kts | 88° |
| 2026-04-22 23:33 | 18.43382 | -66.15436 | 2546 ft | 139 kts | 88° |
| 2026-04-22 23:33 | 18.43380 | -66.14426 | 2371 ft | 137 kts | 87° |
| 2026-04-22 23:33 | 18.43379 | -66.13421 | 2195 ft | 138 kts | 87° |
| 2026-04-22 23:33 | 18.43377 | -66.12420 | 2018 ft | 136 kts | 87° |
| 2026-04-22 23:34 | 18.43375 | -66.11420 | 1838 ft | 136 kts | 88° |
| 2026-04-22 23:34 | 18.43376 | -66.10428 | 1672 ft | 136 kts | 88° |
| 2026-04-22 23:34 | 18.43355 | -66.09428 | 1523 ft | 137 kts | 88° |
| 2026-04-22 23:34 | 18.43362 | -66.08423 | 1328 ft | 138 kts | 87° |
| 2026-04-22 23:35 | 18.43364 | -66.07422 | 1141 ft | 136 kts | 88° |
| 2026-04-22 23:35 | 18.43362 | -66.06426 | 996 ft | 134 kts | 88° |
| 2026-04-22 23:35 | 18.43359 | -66.05458 | 828 ft | 136 kts | 86° |
| 2026-04-22 23:35 | 18.43357 | -66.04476 | 648 ft | 133 kts | 89° |
| 2026-04-22 23:36 | 18.43360 | -66.03492 | 416 ft | 134 kts | 87° |
| 2026-04-22 23:36 | 18.43359 | -66.02517 | 281 ft | 133 kts | 89° |
| 2026-04-22 23:36 | 18.43358 | -66.01545 | 94 ft | 133 kts | 89° |
| 2026-04-22 23:36 | 18.43357 | -66.00645 | 17 ft | 101 kts | 90° |
| 2026-04-22 23:37 | 18.43353 | -66.00101 | 17 ft | 46 kts | 90° |
| 2026-04-22 23:37 | 18.43413 | -65.99909 | 17 ft | 15 kts | 57° |
| 2026-04-22 23:37 | 18.43478 | -65.99906 | 17 ft | 5 kts | 309° |
| 2026-04-22 23:37 | 18.43465 | -65.99952 | 17 ft | 9 kts | 258° |
| 2026-04-22 23:38 | 18.43463 | -66.00023 | 17 ft | 11 kts | 269° |
| 2026-04-22 23:38 | 18.43465 | -66.00112 | 17 ft | 13 kts | 272° |
| 2026-04-22 23:38 | 18.43471 | -66.00212 | 17 ft | 12 kts | 293° |
| 2026-04-22 23:38 | 18.43544 | -66.00240 | 17 ft | 9 kts | 329° |
| 2026-04-22 23:39 | 18.43567 | -66.00304 | 17 ft | 9 kts | 281° |
| 2026-04-22 23:39 | 18.43589 | -66.00326 | 18 ft | 5 kts | 336° |
| 2026-04-22 23:39 | 18.43609 | -66.00333 | 17 ft | 2 kts | 342° |
| 2026-04-22 23:39 | 18.43612 | -66.00334 | 17 ft | 0 kts | 343° |